LROP/OTP METAR and TAF weather

Enter ICAO airport designator
Station Type Date Time Source
LROP METAR 2022/06/25 23:30 UTC NOAA

LROP 252330Z AUTO 36006KT 9999 BKN130/// 20/14 Q1013 NOSIG


Station Type Date Time Source
LROP Decoded METAR 2022/06/25 23:30 UTC NOAA

Bucuresti Otopeni, Romania (LROP) 44-33N 026-06E 95M
Jun 25, 2022 - 07:30 PM EDT / 2022.06.25 2330 UTC
Wind: from the N (360 degrees) at 7 MPH (6 KT):0
Visibility: greater than 7 mile(s):0
Sky conditions: mostly cloudy
Temperature: 68 F (20 C)
Dew Point: 57 F (14 C)
Relative Humidity: 68%
Pressure (altimeter): 29.91 in. Hg (1013 hPa)
ob: LROP 252330Z AUTO 36006KT 9999 BKN130/// 20/14 Q1013 NOSIG
cycle: 23

Station Type Date Time Source
LROP TAF 2022/06/25 18:33 UTC NOAA

TAF LROP 251700Z 2518/2618 07008KT CAVOK PROB40
TEMPO 2614/2618 5000 -SHRA SCT040CB

Example: see airport list